createdAt,value
2024-01-10T00:00:26.303Z,62.68
2024-01-10T00:03:28.298Z,62.33
2024-01-10T00:06:31.157Z,61.97
2024-01-10T00:09:34.510Z,64.30
2024-01-10T00:12:37.958Z,64.78
2024-01-10T00:15:40.124Z,66.02
2024-01-10T00:18:42.286Z,62.99
2024-01-10T00:21:44.176Z,62.29
2024-01-10T00:24:48.765Z,62.38
2024-01-10T00:27:50.881Z,61.65
2024-01-10T00:30:53.208Z,62.37
2024-01-10T00:33:55.462Z,66.53
2024-01-10T00:36:58.436Z,66.56
2024-01-10T00:40:01.903Z,68.05
2024-01-10T00:43:05.271Z,68.84
2024-01-10T00:46:07.302Z,69.02
2024-01-10T00:49:09.426Z,68.88
2024-01-10T00:52:12.605Z,69.96
2024-01-10T00:55:17.961Z,70.13
2024-01-10T00:58:23.654Z,70.27
2024-01-10T01:01:26.600Z,70.55
2024-01-10T01:04:30.043Z,70.51
2024-01-10T01:07:33.025Z,67.74
2024-01-10T01:10:38.293Z,70.10
2024-01-10T01:13:41.798Z,69.79
2024-01-10T01:16:44.773Z,69.24
2024-01-10T01:19:47.997Z,68.22
2024-01-10T01:22:51.027Z,73.15
2024-01-10T01:25:54.639Z,74.13
2024-01-10T01:28:56.967Z,72.64
2024-01-10T01:31:59.027Z,73.08
2024-01-10T01:35:01.929Z,70.40
2024-01-10T01:38:06.585Z,70.58
2024-01-10T01:41:11.808Z,72.39
2024-01-10T01:44:14.775Z,75.76
2024-01-10T01:47:18.059Z,71.99
2024-01-10T01:50:21.176Z,71.20
2024-01-10T01:53:25.494Z,70.29
2024-01-10T01:56:29.156Z,69.57
2024-01-10T01:59:31.917Z,67.05
2024-01-10T02:02:35.785Z,66.53
2024-01-10T02:05:38.305Z,67.78
2024-01-10T02:08:40.855Z,67.23
2024-01-10T02:11:44.539Z,65.71
2024-01-10T02:14:46.782Z,66.37
2024-01-10T02:17:48.745Z,63.93
2024-01-10T02:20:51.299Z,60.96
2024-01-10T02:23:53.716Z,64.21
2024-01-10T02:26:57.186Z,62.76
2024-01-10T02:30:02.070Z,62.84
2024-01-10T02:33:05.038Z,58.84
2024-01-10T02:36:07.389Z,61.05
2024-01-10T02:39:09.311Z,60.63
2024-01-10T02:42:13.311Z,59.19
2024-01-10T02:45:15.466Z,59.91
2024-01-10T02:48:17.888Z,61.24
2024-01-10T02:51:19.836Z,61.62
2024-01-10T02:54:21.836Z,65.01
2024-01-10T02:57:26.063Z,67.85
2024-01-10T03:00:27.950Z,67.95
2024-01-10T03:03:30.099Z,69.73
2024-01-10T03:06:32.702Z,71.69
2024-01-10T03:09:34.812Z,66.85
2024-01-10T03:12:38.930Z,68.88
2024-01-10T03:15:40.822Z,72.27
2024-01-10T03:18:42.912Z,67.67
2024-01-10T03:21:45.704Z,68.06
2024-01-10T03:24:47.537Z,67.16
2024-01-10T03:27:50.832Z,67.31
2024-01-10T03:30:53.278Z,65.69
2024-01-10T03:33:55.355Z,67.30
2024-01-10T03:36:57.554Z,67.18
2024-01-10T03:40:00.554Z,68.94
2024-01-10T03:43:04.122Z,66.79
2024-01-10T03:46:06.985Z,66.36
2024-01-10T03:49:09.098Z,67.09
2024-01-10T03:52:11.555Z,66.70
2024-01-10T03:55:14.234Z,64.54
2024-01-10T03:58:17.929Z,66.63
2024-01-10T04:01:23.698Z,66.24
2024-01-10T04:04:25.665Z,64.70
2024-01-10T04:07:28.903Z,63.88
2024-01-10T04:10:30.793Z,63.22
2024-01-10T04:13:34.809Z,65.88
2024-01-10T04:16:36.694Z,63.64
2024-01-10T04:19:38.851Z,64.00
2024-01-10T04:22:47.149Z,65.20
2024-01-10T04:25:54.307Z,66.60
2024-01-10T04:29:02.845Z,65.41
2024-01-10T04:32:12.466Z,64.92
2024-01-10T04:35:19.029Z,64.59
2024-01-10T04:38:20.915Z,63.91
2024-01-10T04:41:23.392Z,68.74
2024-01-10T04:44:26.974Z,64.45
2024-01-10T04:47:29.000Z,64.68
2024-01-10T04:50:31.494Z,62.98
2024-01-10T04:53:33.505Z,65.70
2024-01-10T04:56:40.086Z,64.19
2024-01-10T04:59:43.371Z,64.58
2024-01-10T05:02:45.437Z,66.15
2024-01-10T05:05:47.668Z,70.72
2024-01-10T05:08:50.515Z,71.15
2024-01-10T05:11:53.400Z,69.46
2024-01-10T05:14:57.768Z,68.23
2024-01-10T05:17:59.803Z,67.66
2024-01-10T05:21:02.711Z,69.61
2024-01-10T05:24:05.577Z,70.23
2024-01-10T05:27:08.342Z,70.74
2024-01-10T05:30:14.025Z,68.98
2024-01-10T05:33:16.024Z,68.26
2024-01-10T05:36:17.990Z,68.78
2024-01-10T05:39:22.040Z,70.00
2024-01-10T05:42:24.319Z,69.14
2024-01-10T05:45:27.730Z,72.38
2024-01-10T05:48:29.737Z,72.60
2024-01-10T05:51:32.434Z,70.66
2024-01-10T05:54:34.318Z,72.34
2024-01-10T05:57:36.260Z,72.57
2024-01-10T06:00:39.536Z,67.03
2024-01-10T06:03:41.536Z,65.76
2024-01-10T06:06:44.252Z,63.91
2024-01-10T06:09:46.626Z,63.88
2024-01-10T06:12:48.554Z,64.29
2024-01-10T06:15:51.887Z,64.91
2024-01-10T06:18:53.954Z,66.55
2024-01-10T06:21:57.143Z,67.26
2024-01-10T06:25:01.056Z,67.83
2024-01-10T06:28:03.235Z,67.75
2024-01-10T06:31:07.968Z,67.70
2024-01-10T06:34:11.169Z,67.35
2024-01-10T06:37:13.166Z,68.68
2024-01-10T06:40:15.477Z,66.88
2024-01-10T06:43:18.111Z,65.49
2024-01-10T06:46:21.690Z,64.92
2024-01-10T06:49:24.113Z,62.71
2024-01-10T06:52:26.034Z,64.82
2024-01-10T06:55:30.078Z,61.52
2024-01-10T06:58:32.281Z,61.06
2024-01-10T07:01:36.480Z,61.03
2024-01-10T07:04:38.730Z,71.66
2024-01-10T07:07:40.781Z,76.64
2024-01-10T07:10:42.715Z,77.69
2024-01-10T07:13:45.115Z,77.57
2024-01-10T07:16:49.125Z,79.36
2024-01-10T07:19:52.070Z,82.86
2024-01-10T07:22:54.027Z,85.19
2024-01-10T07:25:56.061Z,85.11
2024-01-10T07:28:57.926Z,83.97
2024-01-10T07:32:01.445Z,82.67
2024-01-10T07:35:03.577Z,75.25
2024-01-10T07:38:09.397Z,72.29
2024-01-10T07:41:13.138Z,69.20
2024-01-10T07:44:15.197Z,67.28
2024-01-10T07:47:18.654Z,65.61
2024-01-10T07:50:20.986Z,63.22
2024-01-10T07:53:27.261Z,62.21
2024-01-10T07:56:29.387Z,56.42
2024-01-10T07:59:31.559Z,53.66
2024-01-10T08:02:35.198Z,56.67
2024-01-10T08:05:37.396Z,62.72
2024-01-10T08:08:39.875Z,63.64
2024-01-10T08:11:41.802Z,63.71
2024-01-10T08:14:47.215Z,62.60
2024-01-10T08:17:51.714Z,57.54
2024-01-10T08:20:53.706Z,59.30
2024-01-10T08:23:56.002Z,60.95
2024-01-10T08:26:58.042Z,61.78
2024-01-10T08:30:01.053Z,62.10
2024-01-10T08:33:05.996Z,60.30
2024-01-10T08:36:10.891Z,63.65
2024-01-10T08:39:13.120Z,64.69
2024-01-10T08:42:15.194Z,65.84
2024-01-10T08:45:17.841Z,65.75
2024-01-10T08:48:21.197Z,67.46
2024-01-10T08:51:23.785Z,68.36
2024-01-10T08:54:26.342Z,66.84
2024-01-10T08:57:29.190Z,65.76
2024-01-10T09:00:31.251Z,65.44
2024-01-10T09:03:34.792Z,63.77
2024-01-10T09:06:39.406Z,60.20
2024-01-10T09:09:41.582Z,57.38
2024-01-10T09:12:47.322Z,56.06
2024-01-10T09:15:49.718Z,55.64
2024-01-10T09:18:55.612Z,54.35
2024-01-10T09:21:58.845Z,53.18
2024-01-10T09:25:05.223Z,54.62
2024-01-10T09:28:07.284Z,53.81
2024-01-10T09:31:10.044Z,53.18
2024-01-10T09:34:13.623Z,53.43
2024-01-10T09:37:15.868Z,52.84
2024-01-10T09:40:19.148Z,55.52
2024-01-10T09:43:23.162Z,58.62
2024-01-10T09:46:25.973Z,58.74
2024-01-10T09:49:30.618Z,58.07
2024-01-10T09:52:38.793Z,60.02
2024-01-10T09:55:41.279Z,58.13
2024-01-10T09:58:47.261Z,58.41
2024-01-10T10:01:49.669Z,59.25
2024-01-10T10:04:58.610Z,56.05
2024-01-10T10:08:00.804Z,55.69
2024-01-10T10:11:03.794Z,52.19
2024-01-10T10:14:19.347Z,51.67
2024-01-10T10:17:21.957Z,51.93
2024-01-10T10:20:26.883Z,51.73
2024-01-10T10:23:29.063Z,51.30
2024-01-10T10:26:34.333Z,50.03
2024-01-10T10:29:37.322Z,51.55
2024-01-10T10:32:39.673Z,51.78
2024-01-10T10:35:46.459Z,48.99
2024-01-10T10:38:50.847Z,50.44
2024-01-10T10:41:54.543Z,49.43
2024-01-10T10:45:03.673Z,50.30
2024-01-10T10:48:10.644Z,48.78
2024-01-10T10:51:20.300Z,48.98
2024-01-10T10:54:24.112Z,50.97
2024-01-10T10:57:28.141Z,49.74
2024-01-10T11:00:31.031Z,50.83
2024-01-10T11:03:37.187Z,50.04
2024-01-10T11:06:41.430Z,50.84
2024-01-10T11:09:46.257Z,50.81
2024-01-10T11:13:15.435Z,51.00
2024-01-10T11:16:39.636Z,50.01
2024-01-10T11:20:14.478Z,49.36
2024-01-10T11:23:40.282Z,50.40
2024-01-10T11:26:42.899Z,48.88
2024-01-10T11:29:47.908Z,49.19
2024-01-10T11:32:49.932Z,48.51
2024-01-10T11:36:17.003Z,47.46
2024-01-10T11:39:20.848Z,48.14
2024-01-10T11:42:24.523Z,48.93
2024-01-10T11:45:39.009Z,48.78
2024-01-10T11:48:42.119Z,48.41
2024-01-10T11:51:47.642Z,47.88
2024-01-10T11:54:51.641Z,46.85
2024-01-10T11:58:10.782Z,47.56
2024-01-10T12:01:12.885Z,46.30
2024-01-10T12:04:23.725Z,47.34
2024-01-10T12:07:29.349Z,47.15
2024-01-10T12:10:37.540Z,49.09
2024-01-10T12:13:39.756Z,48.20
2024-01-10T12:16:43.233Z,48.13
2024-01-10T12:19:47.365Z,48.96
2024-01-10T12:22:49.882Z,47.42
2024-01-10T12:25:53.817Z,48.34
2024-01-10T12:28:57.006Z,48.26
2024-01-10T12:32:00.969Z,47.96
2024-01-10T12:35:04.419Z,48.14
2024-01-10T12:38:07.293Z,48.55
2024-01-10T12:41:12.036Z,49.38
2024-01-10T12:44:14.439Z,48.41
2024-01-10T12:47:21.064Z,49.47
2024-01-10T12:50:23.221Z,49.32
2024-01-10T12:53:25.376Z,51.29
2024-01-10T12:56:29.720Z,50.84
2024-01-10T12:59:32.373Z,50.94
2024-01-10T13:02:38.372Z,52.66
2024-01-10T13:05:40.835Z,52.02
2024-01-10T13:08:43.833Z,51.88
2024-01-10T13:11:47.430Z,52.65
2024-01-10T13:14:50.150Z,53.93
2024-01-10T13:17:52.256Z,55.16
2024-01-10T13:20:54.715Z,55.13
2024-01-10T13:23:57.190Z,56.99
2024-01-10T13:27:00.592Z,58.92
2024-01-10T13:30:03.197Z,59.00
2024-01-10T13:33:05.250Z,60.57
2024-01-10T13:36:07.502Z,61.12
2024-01-10T13:39:10.203Z,60.73
2024-01-10T13:42:15.074Z,61.16
2024-01-10T13:45:18.329Z,61.74
2024-01-10T13:48:20.510Z,62.25
2024-01-10T13:51:23.094Z,62.25
2024-01-10T13:54:24.942Z,61.28
2024-01-10T13:57:30.845Z,61.43
2024-01-10T14:00:32.913Z,62.05
2024-01-10T14:03:34.945Z,63.34
2024-01-10T14:06:37.401Z,65.61
2024-01-10T14:09:39.306Z,72.49
2024-01-10T14:12:43.376Z,72.84
2024-01-10T14:15:45.415Z,71.79
2024-01-10T14:18:49.598Z,73.23
2024-01-10T14:21:51.653Z,69.43
2024-01-10T14:24:56.208Z,69.74
2024-01-10T14:28:03.148Z,70.68
2024-01-10T14:31:14.063Z,73.70
2024-01-10T14:34:26.392Z,74.02
2024-01-10T14:37:28.317Z,73.75
2024-01-10T14:40:31.239Z,72.43
2024-01-10T14:43:34.563Z,72.90
2024-01-10T14:46:37.067Z,73.11
2024-01-10T14:49:39.534Z,70.15
2024-01-10T14:52:41.879Z,68.52
2024-01-10T14:55:43.826Z,69.43
2024-01-10T14:58:47.315Z,69.58
2024-01-10T15:01:49.982Z,69.97
2024-01-10T15:04:52.112Z,70.93
2024-01-10T15:07:55.384Z,69.20
2024-01-10T15:10:57.563Z,71.58
2024-01-10T15:14:02.145Z,74.58
2024-01-10T15:17:10.072Z,74.69
2024-01-10T15:20:13.991Z,71.38
2024-01-10T15:23:16.171Z,70.89
2024-01-10T15:26:22.171Z,71.04
2024-01-10T15:29:25.597Z,71.25
2024-01-10T15:32:29.618Z,72.55
2024-01-10T15:35:31.765Z,71.87
2024-01-10T15:38:33.790Z,72.80
2024-01-10T15:41:35.946Z,74.26
2024-01-10T15:44:41.448Z,75.83
2024-01-10T15:47:44.979Z,77.75
2024-01-10T15:50:47.130Z,78.14
2024-01-10T15:53:51.535Z,78.17
2024-01-10T15:56:53.714Z,79.34
2024-01-10T15:59:59.426Z,78.69
2024-01-10T16:03:04.161Z,80.53
2024-01-10T16:06:06.973Z,80.15
2024-01-10T16:09:10.284Z,80.37
2024-01-10T16:12:12.258Z,83.22
2024-01-10T16:15:17.405Z,80.41
2024-01-10T16:18:19.581Z,82.04
2024-01-10T16:21:24.434Z,82.04
2024-01-10T16:24:26.438Z,83.05
2024-01-10T16:27:28.709Z,83.44
2024-01-10T16:30:32.178Z,87.54
2024-01-10T16:33:34.643Z,86.50
2024-01-10T16:36:36.607Z,85.83
2024-01-10T16:39:40.304Z,83.88
2024-01-10T16:42:42.265Z,84.08
2024-01-10T16:45:46.050Z,84.56
2024-01-10T16:48:48.282Z,84.35
2024-01-10T16:51:50.626Z,84.12
2024-01-10T16:54:52.601Z,83.69
2024-01-10T16:57:55.424Z,87.36
2024-01-10T17:01:00.588Z,89.76
2024-01-10T17:04:02.670Z,92.70
2024-01-10T17:07:05.805Z,92.34
2024-01-10T17:10:08.317Z,92.60
2024-01-10T17:13:10.753Z,92.49
2024-01-10T17:16:14.422Z,93.75
2024-01-10T17:19:16.828Z,93.81
2024-01-10T17:22:18.793Z,90.93
2024-01-10T17:25:22.152Z,90.39
2024-01-10T17:28:24.167Z,89.05
2024-01-10T17:31:27.929Z,89.60
2024-01-10T17:34:32.613Z,89.83
2024-01-10T17:37:34.890Z,91.59
2024-01-10T17:40:37.441Z,92.74
2024-01-10T17:43:39.562Z,91.58
2024-01-10T17:46:44.915Z,91.82
2024-01-10T17:49:46.950Z,93.17
2024-01-10T17:52:49.306Z,94.14
2024-01-10T17:55:51.522Z,93.38
2024-01-10T17:58:53.553Z,91.33
2024-01-10T18:01:57.944Z,91.18
2024-01-10T18:05:00.197Z,93.19
2024-01-10T18:08:02.567Z,94.63
2024-01-10T18:11:05.071Z,100.00
2024-01-10T18:14:07.194Z,100.00
2024-01-10T18:17:10.784Z,100.00
2024-01-10T18:20:13.851Z,100.00
2024-01-10T18:23:16.552Z,100.00
2024-01-10T18:26:18.737Z,100.00
2024-01-10T18:29:23.322Z,100.00
2024-01-10T18:32:27.003Z,100.00
2024-01-10T18:35:29.122Z,100.00
2024-01-10T18:38:31.140Z,100.00
2024-01-10T18:41:33.393Z,100.00
2024-01-10T18:44:36.070Z,100.00
2024-01-10T18:47:39.573Z,100.00
2024-01-10T18:50:42.373Z,100.00
2024-01-10T18:53:44.424Z,100.00
2024-01-10T18:56:47.243Z,100.00
2024-01-10T18:59:49.112Z,100.00
2024-01-10T19:02:52.532Z,100.00
2024-01-10T19:05:54.503Z,100.00
2024-01-10T19:08:57.557Z,100.00
2024-01-10T19:11:59.536Z,100.00
2024-01-10T19:15:02.378Z,100.00
2024-01-10T19:18:06.228Z,100.00
2024-01-10T19:21:09.004Z,100.00
2024-01-10T19:24:12.753Z,100.00
2024-01-10T19:27:16.930Z,100.00
2024-01-10T19:30:22.528Z,100.00
2024-01-10T19:33:27.044Z,100.00
2024-01-10T19:36:31.864Z,100.00
2024-01-10T19:39:35.604Z,100.00
2024-01-10T19:42:38.217Z,100.00
2024-01-10T19:45:40.477Z,100.00
2024-01-10T19:48:45.722Z,100.00
2024-01-10T19:51:47.980Z,100.00
2024-01-10T19:54:50.752Z,100.00
2024-01-10T19:57:53.285Z,100.00
2024-01-10T20:00:55.542Z,100.00
2024-01-10T20:03:59.735Z,100.00
2024-01-10T20:07:01.893Z,100.00
2024-01-10T20:10:04.294Z,100.00
2024-01-10T20:13:08.185Z,100.00
2024-01-10T20:16:11.522Z,100.00
2024-01-10T20:19:15.297Z,100.00
2024-01-10T20:22:18.585Z,100.00
2024-01-10T20:25:25.645Z,100.00
2024-01-10T20:28:28.202Z,100.00
2024-01-10T20:31:30.411Z,100.00
2024-01-10T20:34:34.885Z,100.00
2024-01-10T20:37:37.245Z,100.00
2024-01-10T20:40:40.018Z,100.00
2024-01-10T20:43:42.046Z,100.00
2024-01-10T20:46:44.118Z,100.00
2024-01-10T20:49:48.513Z,100.00
2024-01-10T20:52:50.578Z,100.00
2024-01-10T20:55:53.081Z,100.00
2024-01-10T20:58:55.125Z,100.00
2024-01-10T21:01:57.111Z,100.00
2024-01-10T21:05:01.942Z,100.00
2024-01-10T21:08:05.046Z,100.00
2024-01-10T21:11:08.066Z,100.00
2024-01-10T21:14:11.282Z,100.00
2024-01-10T21:17:14.722Z,100.00
2024-01-10T21:20:19.024Z,100.00
2024-01-10T21:23:21.620Z,100.00
2024-01-10T21:26:24.042Z,100.00
2024-01-10T21:29:26.071Z,100.00
2024-01-10T21:32:28.272Z,100.00
2024-01-10T21:35:31.950Z,100.00
2024-01-10T21:38:33.968Z,99.74
2024-01-10T21:41:36.901Z,99.83
2024-01-10T21:44:38.967Z,100.00
2024-01-10T21:47:41.139Z,100.00
2024-01-10T21:50:47.357Z,100.00
2024-01-10T21:53:50.044Z,100.00
2024-01-10T21:56:52.062Z,100.00
2024-01-10T21:59:54.044Z,100.00
2024-01-10T22:02:58.040Z,100.00
2024-01-10T22:06:02.486Z,100.00
2024-01-10T22:09:04.923Z,100.00
2024-01-10T22:12:09.025Z,100.00
2024-01-10T22:15:11.180Z,100.00
2024-01-10T22:18:13.460Z,100.00
2024-01-10T22:21:18.013Z,100.00
2024-01-10T22:24:19.904Z,100.00
2024-01-10T22:27:22.768Z,100.00
2024-01-10T22:30:25.873Z,100.00
2024-01-10T22:33:28.128Z,100.00
2024-01-10T22:36:31.580Z,100.00
2024-01-10T22:39:33.512Z,100.00
2024-01-10T22:42:37.170Z,100.00
2024-01-10T22:45:39.126Z,100.00
2024-01-10T22:48:41.365Z,100.00
2024-01-10T22:51:45.049Z,100.00
2024-01-10T22:54:46.972Z,100.00
2024-01-10T22:57:52.488Z,100.00
2024-01-10T23:00:54.376Z,100.00
2024-01-10T23:03:56.623Z,100.00
2024-01-10T23:07:00.005Z,100.00
2024-01-10T23:10:01.959Z,100.00
2024-01-10T23:13:04.320Z,100.00
2024-01-10T23:16:06.819Z,100.00
2024-01-10T23:19:10.564Z,100.00
2024-01-10T23:22:13.992Z,100.00
2024-01-10T23:25:16.741Z,100.00
2024-01-10T23:28:18.765Z,100.00
2024-01-10T23:31:21.867Z,100.00
2024-01-10T23:34:23.831Z,100.00
2024-01-10T23:37:27.305Z,100.00
2024-01-10T23:40:29.999Z,100.00
2024-01-10T23:43:32.056Z,100.00
2024-01-10T23:46:34.519Z,100.00
2024-01-10T23:49:36.611Z,100.00
2024-01-10T23:52:41.010Z,100.00
2024-01-10T23:55:43.882Z,100.00
2024-01-10T23:58:45.918Z,100.00
